createdAt,value
2022-08-21T00:01:45.862Z,13.27
2022-08-21T00:04:20.078Z,13.15
2022-08-21T00:06:51.650Z,12.82
2022-08-21T00:09:20.678Z,13.50
2022-08-21T00:11:48.919Z,13.43
2022-08-21T00:14:16.737Z,13.30
2022-08-21T00:16:44.387Z,14.98
2022-08-21T00:19:12.397Z,13.30
2022-08-21T00:21:40.117Z,14.75
2022-08-21T00:24:12.450Z,14.38
2022-08-21T00:26:40.227Z,15.20
2022-08-21T00:29:07.647Z,14.70
2022-08-21T00:31:34.916Z,16.00
2022-08-21T00:34:02.599Z,14.80
2022-08-21T00:36:31.090Z,13.10
2022-08-21T00:38:59.613Z,13.35
2022-08-21T00:41:38.633Z,14.40
2022-08-21T00:44:10.416Z,14.50
2022-08-21T00:46:38.864Z,15.07
2022-08-21T00:49:08.481Z,17.45
2022-08-21T00:51:51.308Z,15.52
2022-08-21T00:54:20.714Z,15.70
2022-08-21T00:56:55.325Z,15.35
2022-08-21T00:59:24.430Z,15.05
2022-08-21T01:01:53.194Z,15.65
2022-08-21T01:04:21.686Z,16.75
2022-08-21T01:06:48.982Z,15.07
2022-08-21T01:09:16.703Z,14.77
2022-08-21T01:11:44.654Z,16.50
2022-08-21T01:14:14.268Z,16.10
2022-08-21T01:16:51.406Z,16.25
2022-08-21T01:19:21.669Z,17.58
2022-08-21T01:21:49.320Z,17.42
2022-08-21T01:24:16.750Z,19.98
2022-08-21T01:26:45.785Z,18.80
2022-08-21T01:29:33.633Z,19.67
2022-08-21T01:32:11.390Z,19.45
2022-08-21T01:34:42.808Z,20.67
2022-08-21T01:37:10.802Z,19.80
2022-08-21T01:39:38.970Z,21.17
2022-08-21T01:42:07.128Z,20.17
2022-08-21T01:44:36.280Z,19.17
2022-08-21T01:47:08.918Z,19.90
2022-08-21T01:49:37.485Z,19.52
2022-08-21T01:52:06.559Z,20.65
2022-08-21T01:54:38.119Z,18.67
2022-08-21T01:57:06.893Z,18.05
2022-08-21T01:59:35.810Z,19.98
2022-08-21T02:02:03.218Z,19.98
2022-08-21T02:04:32.934Z,21.42
2022-08-21T02:07:02.280Z,21.40
2022-08-21T02:09:29.653Z,22.48
2022-08-21T02:11:57.793Z,22.08
2022-08-21T02:14:27.149Z,21.88
2022-08-21T02:17:08.731Z,20.20
2022-08-21T02:19:40.281Z,21.75
2022-08-21T02:22:12.231Z,21.25
2022-08-21T02:24:54.289Z,20.25
2022-08-21T02:27:27.202Z,22.73
2022-08-21T02:29:57.688Z,23.85
2022-08-21T02:32:25.764Z,23.95
2022-08-21T02:34:53.376Z,22.70
2022-08-21T02:37:21.084Z,21.08
2022-08-21T02:39:48.472Z,20.58
2022-08-21T02:42:15.919Z,20.45
2022-08-21T02:44:43.209Z,21.35
2022-08-21T02:47:10.549Z,22.05
2022-08-21T02:49:37.866Z,25.27
2022-08-21T02:52:06.941Z,19.98
2022-08-21T02:54:34.685Z,23.90
2022-08-21T02:57:01.982Z,21.33
2022-08-21T02:59:29.221Z,20.88
2022-08-21T03:01:57.252Z,19.90
2022-08-21T03:04:24.736Z,18.63
2022-08-21T03:06:52.651Z,16.80
2022-08-21T03:09:19.938Z,17.35
2022-08-21T03:11:47.652Z,18.25
2022-08-21T03:14:14.929Z,12.52
2022-08-21T03:16:43.245Z,12.30
2022-08-21T03:19:10.885Z,13.35
2022-08-21T03:21:38.134Z,13.65
2022-08-21T03:24:06.103Z,19.42
2022-08-21T03:26:34.342Z,17.25
2022-08-21T03:29:01.629Z,18.65
2022-08-21T03:31:32.014Z,19.63
2022-08-21T03:34:00.159Z,21.25
2022-08-21T03:36:27.519Z,21.33
2022-08-21T03:38:54.977Z,17.02
2022-08-21T03:41:22.471Z,17.58
2022-08-21T03:43:49.759Z,17.02
2022-08-21T03:46:17.198Z,18.02
2022-08-21T03:48:45.451Z,18.67
2022-08-21T03:51:13.365Z,17.85
2022-08-21T03:53:40.975Z,16.60
2022-08-21T03:56:08.917Z,17.48
2022-08-21T03:58:36.432Z,18.25
2022-08-21T04:01:07.246Z,20.92
2022-08-21T04:03:38.244Z,22.55
2022-08-21T04:06:06.459Z,22.83
2022-08-21T04:08:33.818Z,20.83
2022-08-21T04:11:02.221Z,20.30
2022-08-21T04:13:29.586Z,21.63
2022-08-21T04:15:59.677Z,24.00
2022-08-21T04:18:27.135Z,19.35
2022-08-21T04:20:57.025Z,19.77
2022-08-21T04:23:26.903Z,20.33
2022-08-21T04:25:57.047Z,21.73
2022-08-21T04:28:29.146Z,22.27
2022-08-21T04:30:58.512Z,21.38
2022-08-21T04:33:25.980Z,14.45
2022-08-21T04:35:53.333Z,10.35
2022-08-21T04:38:21.285Z,9.15
2022-08-21T04:40:50.538Z,8.38
2022-08-21T04:43:19.253Z,8.73
2022-08-21T04:45:50.245Z,7.07
2022-08-21T04:48:21.716Z,8.45
2022-08-21T04:51:02.843Z,10.00
2022-08-21T04:53:46.633Z,9.65
2022-08-21T04:56:37.285Z,7.68
2022-08-21T04:59:14.532Z,6.85
2022-08-21T05:01:42.461Z,5.78
2022-08-21T05:04:15.000Z,4.38
2022-08-21T05:06:45.792Z,3.45
2022-08-21T05:09:17.612Z,3.60
2022-08-21T05:11:45.972Z,3.78
2022-08-21T05:14:14.235Z,3.80
2022-08-21T05:16:42.882Z,4.07
2022-08-21T05:19:11.075Z,4.03
2022-08-21T05:21:43.212Z,4.60
2022-08-21T05:24:12.478Z,5.65
2022-08-21T05:26:46.144Z,5.70
2022-08-21T05:29:16.774Z,5.53
2022-08-21T05:31:46.605Z,6.95
2022-08-21T05:34:18.724Z,7.68
2022-08-21T05:36:46.591Z,8.45
2022-08-21T05:39:13.930Z,9.35
2022-08-21T05:41:41.919Z,9.65
2022-08-21T05:44:10.254Z,10.10
2022-08-21T05:46:39.555Z,9.05
2022-08-21T05:49:07.022Z,9.73
2022-08-21T05:51:34.329Z,7.82
2022-08-21T05:54:01.687Z,3.92
2022-08-21T05:56:29.108Z,4.55
2022-08-21T05:58:56.721Z,3.97
2022-08-21T06:01:24.200Z,4.10
2022-08-21T06:03:51.794Z,5.00
2022-08-21T06:06:21.036Z,5.53
2022-08-21T06:08:48.317Z,4.53
2022-08-21T06:11:15.667Z,4.53
2022-08-21T06:13:43.243Z,4.03
2022-08-21T06:16:16.691Z,3.67
2022-08-21T06:18:46.578Z,2.90
2022-08-21T06:21:14.833Z,3.25
2022-08-21T06:23:43.603Z,3.20
2022-08-21T06:26:14.961Z,4.07
2022-08-21T06:28:43.759Z,3.80
2022-08-21T06:31:21.381Z,3.83
2022-08-21T06:33:49.143Z,4.22
2022-08-21T06:36:17.387Z,3.55
2022-08-21T06:38:50.866Z,3.83
2022-08-21T06:41:23.875Z,3.40
2022-08-21T06:43:52.197Z,2.83
2022-08-21T06:46:19.532Z,3.25
2022-08-21T06:48:46.904Z,3.58
2022-08-21T06:51:14.230Z,3.50
2022-08-21T06:53:41.750Z,4.15
2022-08-21T06:56:09.439Z,3.88
2022-08-21T06:58:36.947Z,4.00
2022-08-21T07:01:05.230Z,4.53
2022-08-21T07:03:41.991Z,4.75
2022-08-21T07:06:11.515Z,4.88
2022-08-21T07:08:39.800Z,4.85
2022-08-21T07:11:21.228Z,4.30
2022-08-21T07:13:49.492Z,5.07
2022-08-21T07:16:16.973Z,4.53
2022-08-21T07:18:44.396Z,4.18
2022-08-21T07:21:12.337Z,4.38
2022-08-21T07:23:46.656Z,4.63
2022-08-21T07:26:16.697Z,4.28
2022-08-21T07:28:44.244Z,5.38
2022-08-21T07:31:14.823Z,5.20
2022-08-21T07:33:43.174Z,6.53
2022-08-21T07:36:11.106Z,7.22
2022-08-21T07:38:39.119Z,7.35
2022-08-21T07:41:23.724Z,8.85
2022-08-21T07:43:52.975Z,9.75
2022-08-21T07:46:21.166Z,8.80
2022-08-21T07:48:48.997Z,7.05
2022-08-21T07:51:18.233Z,7.22
2022-08-21T07:53:55.054Z,6.03
2022-08-21T07:56:23.185Z,5.00
2022-08-21T07:58:50.751Z,5.05
2022-08-21T08:01:19.315Z,5.55
2022-08-21T08:03:48.199Z,5.00
2022-08-21T08:06:17.651Z,5.22
2022-08-21T08:08:45.229Z,5.18
2022-08-21T08:11:16.255Z,4.53
2022-08-21T08:13:48.161Z,4.63
2022-08-21T08:16:16.323Z,4.07
2022-08-21T08:18:43.848Z,3.22
2022-08-21T08:21:13.811Z,3.50
2022-08-21T08:23:41.348Z,2.50
2022-08-21T08:26:08.853Z,1.80
2022-08-21T08:28:36.306Z,1.30
2022-08-21T08:31:04.291Z,1.30
2022-08-21T08:33:31.816Z,1.10
2022-08-21T08:36:03.398Z,1.08
2022-08-21T08:38:33.978Z,0.60
2022-08-21T08:41:15.923Z,0.57
2022-08-21T08:43:52.868Z,0.70
2022-08-21T08:46:42.027Z,0.40
2022-08-21T08:49:24.288Z,0.43
2022-08-21T08:52:29.321Z,0.50
2022-08-21T08:55:12.806Z,0.40
2022-08-21T08:57:46.240Z,0.40
2022-08-21T09:00:22.401Z,0.40
2022-08-21T09:02:55.809Z,0.20
2022-08-21T09:05:29.605Z,0.40
2022-08-21T09:08:28.346Z,0.30
2022-08-21T09:11:29.997Z,0.20
2022-08-21T09:14:22.398Z,0.30
2022-08-21T09:17:18.131Z,0.30
2022-08-21T09:20:18.169Z,0.30
2022-08-21T09:23:21.005Z,0.20
2022-08-21T09:26:08.657Z,0.25
2022-08-21T09:28:37.466Z,0.50
2022-08-21T09:31:22.344Z,0.40
2022-08-21T09:33:50.486Z,0.50
2022-08-21T09:36:48.139Z,0.50
2022-08-21T09:39:31.576Z,0.63
2022-08-21T09:42:07.412Z,0.40
2022-08-21T09:44:44.384Z,0.40
2022-08-21T09:47:16.122Z,0.30
2022-08-21T09:49:44.662Z,0.70
2022-08-21T09:52:26.397Z,0.60
2022-08-21T09:54:56.789Z,0.70
2022-08-21T10:00:31.061Z,1.17
2022-08-21T10:03:20.065Z,1.13
2022-08-21T10:06:09.211Z,1.50
2022-08-21T10:08:40.423Z,1.50
2022-08-21T10:11:12.866Z,1.58
2022-08-21T10:14:31.171Z,1.33
2022-08-21T10:17:12.227Z,1.63
2022-08-21T10:20:03.396Z,1.23
2022-08-21T10:23:12.260Z,1.38
2022-08-21T10:26:14.074Z,1.05
2022-08-21T10:29:07.023Z,1.20
2022-08-21T10:32:25.950Z,0.73
2022-08-21T10:35:14.216Z,0.73
2022-08-21T10:38:50.333Z,0.60
2022-08-21T10:41:37.937Z,0.70
2022-08-21T10:44:48.337Z,0.63
2022-08-21T10:47:33.541Z,0.40
2022-08-21T10:50:45.868Z,0.57
2022-08-21T10:53:28.619Z,0.60
2022-08-21T10:56:32.127Z,0.70
2022-08-21T10:59:44.906Z,0.77
2022-08-21T11:02:48.475Z,0.77
2022-08-21T11:05:30.333Z,0.90
2022-08-21T11:08:08.339Z,1.05
2022-08-21T11:10:57.558Z,0.90
2022-08-21T11:13:48.949Z,1.00
2022-08-21T11:16:53.649Z,1.10
2022-08-21T11:19:48.759Z,1.23
2022-08-21T11:22:58.914Z,1.20
2022-08-21T11:25:48.436Z,1.38
2022-08-21T11:28:46.795Z,1.38
2022-08-21T11:31:27.090Z,1.80
2022-08-21T11:34:33.546Z,1.35
2022-08-21T11:37:07.422Z,1.30
2022-08-21T11:40:16.723Z,1.92
2022-08-21T11:42:56.937Z,1.88
2022-08-21T11:45:52.389Z,1.90
2022-08-21T11:49:06.526Z,2.60
2022-08-21T11:52:03.754Z,2.35
2022-08-21T11:55:01.447Z,2.92
2022-08-21T11:58:21.335Z,3.17
2022-08-21T12:00:59.257Z,4.07
2022-08-21T12:04:17.047Z,4.50
2022-08-21T12:06:46.703Z,4.07
2022-08-21T12:09:26.138Z,4.65
2022-08-21T12:12:36.049Z,6.00
2022-08-21T12:15:09.041Z,4.53
2022-08-21T12:17:41.084Z,5.20
2022-08-21T12:20:22.336Z,5.43
2022-08-21T12:23:05.726Z,5.85
2022-08-21T12:26:04.212Z,5.53
2022-08-21T12:28:32.939Z,5.50
2022-08-21T12:31:00.366Z,5.10
2022-08-21T12:33:35.055Z,4.90
2022-08-21T12:36:15.797Z,5.50
2022-08-21T12:39:11.842Z,4.95
2022-08-21T12:42:18.485Z,5.10
2022-08-21T12:45:01.712Z,5.13
2022-08-21T12:47:37.797Z,4.50
2022-08-21T12:50:14.762Z,5.03
2022-08-21T12:53:05.876Z,5.00
2022-08-21T12:55:47.816Z,4.90
2022-08-21T12:58:24.747Z,5.07
2022-08-21T13:00:57.613Z,5.55
2022-08-21T13:03:25.628Z,4.47
2022-08-21T13:05:54.720Z,5.25
2022-08-21T13:08:25.841Z,4.70
2022-08-21T13:11:09.191Z,5.22
2022-08-21T13:13:46.936Z,5.65
2022-08-21T13:16:25.709Z,6.30
2022-08-21T13:19:06.671Z,6.80
2022-08-21T13:21:44.423Z,6.25
2022-08-21T13:24:42.506Z,6.25
2022-08-21T13:27:29.206Z,6.10
2022-08-21T13:30:15.333Z,5.63
2022-08-21T13:32:57.344Z,6.25
2022-08-21T13:35:46.512Z,7.03
2022-08-21T13:38:14.559Z,6.32
2022-08-21T13:40:53.951Z,6.30
2022-08-21T13:43:33.594Z,6.90
2022-08-21T13:46:03.505Z,6.60
2022-08-21T13:48:35.485Z,5.78
2022-08-21T13:51:05.451Z,6.07
2022-08-21T13:53:48.517Z,7.97
2022-08-21T13:56:33.842Z,6.57
2022-08-21T13:59:04.238Z,7.35
2022-08-21T14:01:49.611Z,7.70
2022-08-21T14:04:52.975Z,7.13
2022-08-21T14:07:36.674Z,6.90
2022-08-21T14:10:24.325Z,6.57
2022-08-21T14:12:53.664Z,5.53
2022-08-21T14:15:29.646Z,6.43
2022-08-21T14:18:18.758Z,6.10
2022-08-21T14:20:46.880Z,5.35
2022-08-21T14:23:26.968Z,4.70
2022-08-21T14:25:59.473Z,5.47
2022-08-21T14:28:39.546Z,5.28
2022-08-21T14:31:21.421Z,4.72
2022-08-21T14:33:49.729Z,4.10
2022-08-21T14:36:17.174Z,4.50
2022-08-21T14:38:44.501Z,4.93
2022-08-21T14:41:25.130Z,4.47
2022-08-21T14:43:55.823Z,4.20
2022-08-21T14:46:36.519Z,4.03
2022-08-21T14:49:13.553Z,4.70
2022-08-21T14:51:42.725Z,4.43
2022-08-21T14:54:22.428Z,4.75
2022-08-21T14:56:56.344Z,4.15
2022-08-21T14:59:24.475Z,4.30
2022-08-21T15:01:52.146Z,4.28
2022-08-21T15:04:19.858Z,3.85
2022-08-21T15:06:47.165Z,4.13
2022-08-21T15:09:14.559Z,5.10
2022-08-21T15:11:43.276Z,3.47
2022-08-21T15:14:21.169Z,4.72
2022-08-21T15:16:50.297Z,4.05
2022-08-21T15:19:18.020Z,3.97
2022-08-21T15:21:45.402Z,4.93
2022-08-21T15:24:12.894Z,4.45
2022-08-21T15:26:40.310Z,4.55
2022-08-21T15:29:09.139Z,4.78
2022-08-21T15:31:37.610Z,5.35
2022-08-21T15:34:04.953Z,4.97
2022-08-21T15:36:32.361Z,5.07
2022-08-21T15:38:59.904Z,4.88
2022-08-21T15:41:27.495Z,4.65
2022-08-21T15:43:55.134Z,5.15
2022-08-21T15:46:23.133Z,4.93
2022-08-21T15:48:50.641Z,4.28
2022-08-21T15:51:18.512Z,4.20
2022-08-21T15:53:47.573Z,4.50
2022-08-21T15:56:28.818Z,4.25
2022-08-21T15:59:13.354Z,3.08
2022-08-21T16:01:44.975Z,3.15
2022-08-21T16:04:25.845Z,3.50
2022-08-21T16:09:29.308Z,3.30
2022-08-21T16:11:56.842Z,2.72
2022-08-21T16:14:24.197Z,2.90
2022-08-21T16:16:52.884Z,2.72
2022-08-21T16:19:21.812Z,3.47
2022-08-21T16:21:49.132Z,3.20
2022-08-21T16:24:16.551Z,3.58
2022-08-21T16:26:44.130Z,3.97
2022-08-21T16:29:12.723Z,3.28
2022-08-21T16:31:41.813Z,2.47
2022-08-21T16:34:17.739Z,2.50
2022-08-21T16:36:46.056Z,3.05
2022-08-21T16:39:13.623Z,2.63
2022-08-21T16:41:41.182Z,2.38
2022-08-21T16:44:09.768Z,2.40
2022-08-21T16:46:41.737Z,2.28
2022-08-21T16:49:10.316Z,1.95
2022-08-21T16:51:38.319Z,2.00
2022-08-21T16:54:05.966Z,2.10
2022-08-21T16:56:34.690Z,2.33
2022-08-21T16:59:05.660Z,1.88
2022-08-21T17:01:34.610Z,2.00
2022-08-21T17:04:02.452Z,1.83
2022-08-21T17:06:31.230Z,2.03
2022-08-21T17:09:01.227Z,2.30
2022-08-21T17:11:39.541Z,2.30
2022-08-21T17:14:15.948Z,2.33
2022-08-21T17:16:50.953Z,2.70
2022-08-21T17:19:20.036Z,2.90
2022-08-21T17:21:47.623Z,2.67
2022-08-21T17:24:15.702Z,2.95
2022-08-21T17:26:45.508Z,2.92
2022-08-21T17:29:16.176Z,2.90
2022-08-21T17:31:45.048Z,3.05
2022-08-21T17:34:15.302Z,3.22
2022-08-21T17:36:42.763Z,2.45
2022-08-21T17:39:11.132Z,2.78
2022-08-21T17:41:40.433Z,2.80
2022-08-21T17:44:13.299Z,3.20
2022-08-21T17:46:44.073Z,2.63
2022-08-21T17:49:11.965Z,2.63
2022-08-21T17:51:39.244Z,2.30
2022-08-21T17:54:06.859Z,1.73
2022-08-21T17:56:38.199Z,1.60
2022-08-21T17:59:06.789Z,2.10
2022-08-21T18:01:40.488Z,1.80
2022-08-21T18:04:08.332Z,1.52
2022-08-21T18:06:36.120Z,1.85
2022-08-21T18:09:05.239Z,1.50
2022-08-21T18:11:34.721Z,1.42
2022-08-21T18:14:07.570Z,2.05
2022-08-21T18:16:37.872Z,1.70
2022-08-21T18:19:11.921Z,2.22
2022-08-21T18:21:39.611Z,2.28
2022-08-21T18:24:07.496Z,2.53
2022-08-21T18:26:41.090Z,2.22
2022-08-21T18:29:12.565Z,2.00
2022-08-21T18:31:41.445Z,2.40
2022-08-21T18:34:35.768Z,2.33
2022-08-21T18:37:04.493Z,2.00
2022-08-21T18:39:36.983Z,2.90
2022-08-21T18:42:11.008Z,3.15
2022-08-21T18:44:41.075Z,2.65
2022-08-21T18:47:37.390Z,2.05
2022-08-21T18:52:55.712Z,1.90
2022-08-21T18:55:24.778Z,1.77
2022-08-21T18:57:54.829Z,1.92
2022-08-21T19:02:54.085Z,1.70
2022-08-21T19:05:23.413Z,1.70
2022-08-21T19:07:52.029Z,1.55
2022-08-21T19:10:28.046Z,2.20
2022-08-21T19:13:00.255Z,1.80
2022-08-21T19:15:29.821Z,2.00
2022-08-21T19:17:58.897Z,2.70
2022-08-21T19:20:36.710Z,3.53
2022-08-21T19:23:09.126Z,2.13
2022-08-21T19:25:40.164Z,2.75
2022-08-21T19:28:25.655Z,2.63
2022-08-21T19:31:02.555Z,3.88
2022-08-21T19:33:37.940Z,3.10
2022-08-21T19:36:09.797Z,3.67
2022-08-21T19:41:09.672Z,3.85
2022-08-21T19:43:52.113Z,3.15
2022-08-21T19:46:32.172Z,3.75
2022-08-21T19:49:01.917Z,3.00
2022-08-21T19:51:29.950Z,3.03
2022-08-21T19:53:58.241Z,3.03
2022-08-21T19:56:29.020Z,2.90
2022-08-21T19:58:57.908Z,2.97
2022-08-21T20:01:27.951Z,3.30
2022-08-21T20:06:44.369Z,3.30
2022-08-21T20:09:12.527Z,3.10
2022-08-21T20:11:50.870Z,2.78
2022-08-21T20:14:25.393Z,2.90
2022-08-21T20:16:54.692Z,2.97
2022-08-21T20:19:22.852Z,3.13
2022-08-21T20:21:50.737Z,2.92
2022-08-21T20:24:18.332Z,3.88
2022-08-21T20:26:49.185Z,3.75
2022-08-21T20:29:39.377Z,3.72
2022-08-21T20:34:56.549Z,3.83
2022-08-21T20:37:36.365Z,3.75
2022-08-21T20:42:59.515Z,4.22
2022-08-21T20:45:34.170Z,4.55
2022-08-21T20:48:23.616Z,4.88
2022-08-21T20:51:14.822Z,6.05
2022-08-21T20:54:07.967Z,6.35
2022-08-21T20:56:43.278Z,5.20
2022-08-21T20:59:33.770Z,6.35
2022-08-21T21:02:30.373Z,6.53
2022-08-21T21:05:15.655Z,6.68
2022-08-21T21:07:59.422Z,5.20
2022-08-21T21:10:51.911Z,6.15
2022-08-21T21:13:46.912Z,5.15
2022-08-21T21:16:30.799Z,4.15
2022-08-21T21:19:04.458Z,4.32
2022-08-21T21:21:51.705Z,4.00
2022-08-21T21:24:37.617Z,4.35
2022-08-21T21:27:22.780Z,4.15
2022-08-21T21:30:16.566Z,4.50
2022-08-21T21:32:49.138Z,3.92
2022-08-21T21:35:32.533Z,4.13
2022-08-21T21:38:51.557Z,4.28
2022-08-21T21:41:54.390Z,4.60
2022-08-21T21:44:40.543Z,4.55
2022-08-21T21:47:27.081Z,4.25
2022-08-21T21:50:21.504Z,4.72
2022-08-21T21:53:12.267Z,4.70
2022-08-21T21:56:01.268Z,4.50
2022-08-21T21:59:06.321Z,4.93
2022-08-21T22:01:46.672Z,4.72
2022-08-21T22:04:34.613Z,4.57
2022-08-21T22:07:37.449Z,4.53
2022-08-21T22:10:30.266Z,3.90
2022-08-21T22:13:46.127Z,3.83
2022-08-21T22:16:14.780Z,4.30
2022-08-21T22:18:59.011Z,4.25
2022-08-21T22:21:39.485Z,3.90
2022-08-21T22:24:28.870Z,3.40
2022-08-21T22:27:09.334Z,3.53
2022-08-21T22:29:53.177Z,3.65
2022-08-21T22:32:42.720Z,3.35
2022-08-21T22:35:26.571Z,3.78
2022-08-21T22:37:59.860Z,3.35
2022-08-21T22:40:35.015Z,3.70
2022-08-21T22:43:16.319Z,2.95
2022-08-21T22:46:06.087Z,2.72
2022-08-21T22:48:50.453Z,2.80
2022-08-21T22:51:48.785Z,2.58
2022-08-21T22:54:33.213Z,2.17
2022-08-21T22:57:30.757Z,1.98
2022-08-21T23:00:11.023Z,1.70
2022-08-21T23:02:52.230Z,1.30
2022-08-21T23:05:25.231Z,1.17
2022-08-21T23:07:53.701Z,1.52
2022-08-21T23:10:26.341Z,1.33
2022-08-21T23:13:23.163Z,1.40
2022-08-21T23:16:22.621Z,1.40
2022-08-21T23:19:08.229Z,1.33
2022-08-21T23:21:53.619Z,1.00
2022-08-21T23:24:32.698Z,1.13
2022-08-21T23:27:18.389Z,1.50
2022-08-21T23:30:10.665Z,1.00
2022-08-21T23:32:52.876Z,1.20
2022-08-21T23:36:47.843Z,1.05
2022-08-21T23:40:17.226Z,1.38
2022-08-21T23:43:25.264Z,1.15
2022-08-21T23:46:34.214Z,1.83
2022-08-21T23:49:17.655Z,1.70
2022-08-21T23:52:18.987Z,1.80
2022-08-21T23:55:20.477Z,2.10
2022-08-21T23:58:11.176Z,2.00
